sensor_id;sensor_type;location;lat;lon;timestamp;temperature;humidity
15409;DHT22;7803;48.130;13.788;2023-02-26T00:01:35;22.80;68.10
15409;DHT22;7803;48.130;13.788;2023-02-26T00:04:38;22.80;68.10
15409;DHT22;7803;48.130;13.788;2023-02-26T00:07:41;22.70;68.00
15409;DHT22;7803;48.130;13.788;2023-02-26T00:10:43;22.70;68.00
15409;DHT22;7803;48.130;13.788;2023-02-26T00:13:46;22.80;68.10
15409;DHT22;7803;48.130;13.788;2023-02-26T00:16:54;22.70;68.10
15409;DHT22;7803;48.130;13.788;2023-02-26T00:20:01;22.70;68.10
15409;DHT22;7803;48.130;13.788;2023-02-26T00:23:03;22.70;68.10
15409;DHT22;7803;48.130;13.788;2023-02-26T00:26:06;22.70;68.10
15409;DHT22;7803;48.130;13.788;2023-02-26T00:29:08;22.70;68.10
15409;DHT22;7803;48.130;13.788;2023-02-26T00:32:11;22.70;68.10
15409;DHT22;7803;48.130;13.788;2023-02-26T00:35:16;22.70;68.10
15409;DHT22;7803;48.130;13.788;2023-02-26T00:38:18;22.70;68.10
15409;DHT22;7803;48.130;13.788;2023-02-26T00:41:20;22.70;68.20
15409;DHT22;7803;48.130;13.788;2023-02-26T00:44:23;22.70;69.10
15409;DHT22;7803;48.130;13.788;2023-02-26T00:47:30;22.70;68.10
15409;DHT22;7803;48.130;13.788;2023-02-26T00:50:35;22.60;68.10
15409;DHT22;7803;48.130;13.788;2023-02-26T00:53:45;22.60;68.10
15409;DHT22;7803;48.130;13.788;2023-02-26T00:56:49;22.60;68.20
15409;DHT22;7803;48.130;13.788;2023-02-26T00:59:51;22.60;68.10
15409;DHT22;7803;48.130;13.788;2023-02-26T01:02:53;22.60;68.10
15409;DHT22;7803;48.130;13.788;2023-02-26T01:05:57;22.60;68.10
15409;DHT22;7803;48.130;13.788;2023-02-26T01:09:04;22.60;68.20
15409;DHT22;7803;48.130;13.788;2023-02-26T01:12:09;22.60;68.10
15409;DHT22;7803;48.130;13.788;2023-02-26T01:15:13;22.60;68.10
15409;DHT22;7803;48.130;13.788;2023-02-26T01:18:18;22.50;68.10
15409;DHT22;7803;48.130;13.788;2023-02-26T01:21:28;22.50;68.10
15409;DHT22;7803;48.130;13.788;2023-02-26T01:24:33;22.50;68.10
15409;DHT22;7803;48.130;13.788;2023-02-26T01:27:37;22.50;68.20
15409;DHT22;7803;48.130;13.788;2023-02-26T01:30:40;22.50;68.20
15409;DHT22;7803;48.130;13.788;2023-02-26T01:33:46;22.50;68.30
15409;DHT22;7803;48.130;13.788;2023-02-26T01:36:57;22.50;68.30
15409;DHT22;7803;48.130;13.788;2023-02-26T01:43:44;22.40;68.20
15409;DHT22;7803;48.130;13.788;2023-02-26T01:47:13;22.50;68.30
15409;DHT22;7803;48.130;13.788;2023-02-26T01:50:20;22.50;68.30
15409;DHT22;7803;48.130;13.788;2023-02-26T01:53:26;22.40;68.30
15409;DHT22;7803;48.130;13.788;2023-02-26T01:56:30;22.50;68.30
15409;DHT22;7803;48.130;13.788;2023-02-26T01:59:33;22.40;68.30
15409;DHT22;7803;48.130;13.788;2023-02-26T02:02:35;22.40;68.30
15409;DHT22;7803;48.130;13.788;2023-02-26T02:05:41;22.40;68.30
15409;DHT22;7803;48.130;13.788;2023-02-26T02:08:46;22.40;68.40
15409;DHT22;7803;48.130;13.788;2023-02-26T02:12:08;22.40;69.30
15409;DHT22;7803;48.130;13.788;2023-02-26T02:15:13;22.40;68.40
15409;DHT22;7803;48.130;13.788;2023-02-26T02:18:20;22.40;68.40
15409;DHT22;7803;48.130;13.788;2023-02-26T02:21:43;22.40;68.40
15409;DHT22;7803;48.130;13.788;2023-02-26T02:24:58;22.40;68.40
15409;DHT22;7803;48.130;13.788;2023-02-26T02:28:19;22.30;68.40
15409;DHT22;7803;48.130;13.788;2023-02-26T02:31:32;22.40;68.50
15409;DHT22;7803;48.130;13.788;2023-02-26T02:34:38;22.30;68.40
15409;DHT22;7803;48.130;13.788;2023-02-26T02:37:45;22.30;68.40
15409;DHT22;7803;48.130;13.788;2023-02-26T02:40:52;22.30;68.50
15409;DHT22;7803;48.130;13.788;2023-02-26T02:43:57;22.30;68.60
15409;DHT22;7803;48.130;13.788;2023-02-26T02:47:04;22.30;68.50
15409;DHT22;7803;48.130;13.788;2023-02-26T02:50:10;22.30;68.60
15409;DHT22;7803;48.130;13.788;2023-02-26T02:53:17;22.20;68.40
15409;DHT22;7803;48.130;13.788;2023-02-26T02:56:24;22.30;68.50
15409;DHT22;7803;48.130;13.788;2023-02-26T02:59:31;22.20;68.60
15409;DHT22;7803;48.130;13.788;2023-02-26T03:02:40;22.20;68.60
15409;DHT22;7803;48.130;13.788;2023-02-26T03:05:44;22.30;68.60
15409;DHT22;7803;48.130;13.788;2023-02-26T03:08:47;22.20;68.60
15409;DHT22;7803;48.130;13.788;2023-02-26T03:11:50;22.20;68.60
15409;DHT22;7803;48.130;13.788;2023-02-26T03:14:52;22.20;69.50
15409;DHT22;7803;48.130;13.788;2023-02-26T03:17:59;22.20;68.60
15409;DHT22;7803;48.130;13.788;2023-02-26T03:21:09;22.20;68.60
15409;DHT22;7803;48.130;13.788;2023-02-26T03:24:17;22.20;68.60
15409;DHT22;7803;48.130;13.788;2023-02-26T03:27:25;22.20;68.60
15409;DHT22;7803;48.130;13.788;2023-02-26T03:30:33;22.20;68.60
15409;DHT22;7803;48.130;13.788;2023-02-26T03:33:45;22.10;68.60
15409;DHT22;7803;48.130;13.788;2023-02-26T03:36:53;22.20;68.60
15409;DHT22;7803;48.130;13.788;2023-02-26T03:39:59;22.20;68.70
15409;DHT22;7803;48.130;13.788;2023-02-26T03:43:08;22.10;68.60
15409;DHT22;7803;48.130;13.788;2023-02-26T03:46:15;22.10;68.60
15409;DHT22;7803;48.130;13.788;2023-02-26T03:49:23;22.10;68.60
15409;DHT22;7803;48.130;13.788;2023-02-26T03:52:30;22.10;68.60
15409;DHT22;7803;48.130;13.788;2023-02-26T03:55:37;22.10;68.60
15409;DHT22;7803;48.130;13.788;2023-02-26T03:58:40;22.10;68.60
15409;DHT22;7803;48.130;13.788;2023-02-26T04:01:46;22.20;68.70
15409;DHT22;7803;48.130;13.788;2023-02-26T04:04:53;22.10;68.60
15409;DHT22;7803;48.130;13.788;2023-02-26T04:07:57;22.10;68.60
15409;DHT22;7803;48.130;13.788;2023-02-26T04:11:04;22.10;69.50
15409;DHT22;7803;48.130;13.788;2023-02-26T04:14:07;22.10;68.70
15409;DHT22;7803;48.130;13.788;2023-02-26T04:17:09;22.10;69.50
15409;DHT22;7803;48.130;13.788;2023-02-26T04:20:12;22.10;68.60
15409;DHT22;7803;48.130;13.788;2023-02-26T04:23:14;22.10;68.60
15409;DHT22;7803;48.130;13.788;2023-02-26T04:26:16;22.10;68.60
15409;DHT22;7803;48.130;13.788;2023-02-26T04:29:18;22.10;68.50
15409;DHT22;7803;48.130;13.788;2023-02-26T04:32:20;22.10;68.60
15409;DHT22;7803;48.130;13.788;2023-02-26T04:35:24;22.10;68.50
15409;DHT22;7803;48.130;13.788;2023-02-26T04:38:26;22.10;68.50
15409;DHT22;7803;48.130;13.788;2023-02-26T04:41:28;22.10;68.40
15409;DHT22;7803;48.130;13.788;2023-02-26T04:44:30;22.10;68.40
15409;DHT22;7803;48.130;13.788;2023-02-26T04:47:33;22.10;68.30
15409;DHT22;7803;48.130;13.788;2023-02-26T04:50:36;22.20;68.20
15409;DHT22;7803;48.130;13.788;2023-02-26T04:53:38;22.20;68.10
15409;DHT22;7803;48.130;13.788;2023-02-26T04:56:41;22.20;68.10
15409;DHT22;7803;48.130;13.788;2023-02-26T04:59:43;22.20;67.90
15409;DHT22;7803;48.130;13.788;2023-02-26T05:02:45;22.20;68.80
15409;DHT22;7803;48.130;13.788;2023-02-26T05:05:48;22.20;67.80
15409;DHT22;7803;48.130;13.788;2023-02-26T05:08:51;22.30;67.80
15409;DHT22;7803;48.130;13.788;2023-02-26T05:11:53;22.30;67.70
15409;DHT22;7803;48.130;13.788;2023-02-26T05:14:55;22.40;67.70
15409;DHT22;7803;48.130;13.788;2023-02-26T05:17:57;22.40;67.60
15409;DHT22;7803;48.130;13.788;2023-02-26T05:21:01;22.40;67.50
15409;DHT22;7803;48.130;13.788;2023-02-26T05:24:03;22.40;67.40
15409;DHT22;7803;48.130;13.788;2023-02-26T05:27:05;22.50;67.40
15409;DHT22;7803;48.130;13.788;2023-02-26T05:30:10;22.50;67.40
15409;DHT22;7803;48.130;13.788;2023-02-26T05:33:12;22.50;67.30
15409;DHT22;7803;48.130;13.788;2023-02-26T05:36:16;22.60;67.30
15409;DHT22;7803;48.130;13.788;2023-02-26T05:39:18;22.60;67.20
15409;DHT22;7803;48.130;13.788;2023-02-26T05:42:20;22.60;67.10
15409;DHT22;7803;48.130;13.788;2023-02-26T05:45:22;22.60;67.10
15409;DHT22;7803;48.130;13.788;2023-02-26T05:48:24;22.60;67.00
15409;DHT22;7803;48.130;13.788;2023-02-26T05:51:28;22.60;66.90
15409;DHT22;7803;48.130;13.788;2023-02-26T05:54:30;22.60;66.90
15409;DHT22;7803;48.130;13.788;2023-02-26T05:57:32;22.60;66.90
15409;DHT22;7803;48.130;13.788;2023-02-26T06:00:34;22.60;66.80
15409;DHT22;7803;48.130;13.788;2023-02-26T06:03:36;22.60;66.70
15409;DHT22;7803;48.130;13.788;2023-02-26T06:06:41;22.70;66.70
15409;DHT22;7803;48.130;13.788;2023-02-26T06:09:43;22.70;66.70
15409;DHT22;7803;48.130;13.788;2023-02-26T06:12:45;22.70;66.70
15409;DHT22;7803;48.130;13.788;2023-02-26T06:15:49;22.70;66.70
15409;DHT22;7803;48.130;13.788;2023-02-26T06:18:53;22.70;66.70
15409;DHT22;7803;48.130;13.788;2023-02-26T06:21:56;22.70;66.70
15409;DHT22;7803;48.130;13.788;2023-02-26T06:24:59;22.70;66.60
15409;DHT22;7803;48.130;13.788;2023-02-26T06:28:01;22.70;66.60
15409;DHT22;7803;48.130;13.788;2023-02-26T06:31:03;22.70;66.60
15409;DHT22;7803;48.130;13.788;2023-02-26T06:34:05;22.80;66.60
15409;DHT22;7803;48.130;13.788;2023-02-26T06:37:09;22.80;66.50
15409;DHT22;7803;48.130;13.788;2023-02-26T06:40:11;22.80;66.50
15409;DHT22;7803;48.130;13.788;2023-02-26T06:43:14;22.80;66.40
15409;DHT22;7803;48.130;13.788;2023-02-26T06:46:16;22.80;66.40
15409;DHT22;7803;48.130;13.788;2023-02-26T06:49:18;22.90;66.40
15409;DHT22;7803;48.130;13.788;2023-02-26T06:52:22;22.80;66.30
15409;DHT22;7803;48.130;13.788;2023-02-26T06:55:24;22.80;66.30
15409;DHT22;7803;48.130;13.788;2023-02-26T06:58:26;22.80;66.30
15409;DHT22;7803;48.130;13.788;2023-02-26T07:01:28;22.80;66.30
15409;DHT22;7803;48.130;13.788;2023-02-26T07:04:31;22.80;66.30
15409;DHT22;7803;48.130;13.788;2023-02-26T07:07:35;22.90;66.40
15409;DHT22;7803;48.130;13.788;2023-02-26T07:10:37;22.90;66.40
15409;DHT22;7803;48.130;13.788;2023-02-26T07:13:40;22.90;66.40
15409;DHT22;7803;48.130;13.788;2023-02-26T07:16:42;22.90;66.40
15409;DHT22;7803;48.130;13.788;2023-02-26T07:19:44;22.90;66.30
15409;DHT22;7803;48.130;13.788;2023-02-26T07:22:48;22.90;66.30
15409;DHT22;7803;48.130;13.788;2023-02-26T07:25:50;22.90;66.20
15409;DHT22;7803;48.130;13.788;2023-02-26T07:28:52;22.90;66.20
15409;DHT22;7803;48.130;13.788;2023-02-26T07:31:54;22.90;66.20
15409;DHT22;7803;48.130;13.788;2023-02-26T07:34:56;22.90;66.20
15409;DHT22;7803;48.130;13.788;2023-02-26T07:38:00;22.90;66.20
15409;DHT22;7803;48.130;13.788;2023-02-26T07:41:02;22.90;66.10
15409;DHT22;7803;48.130;13.788;2023-02-26T07:44:04;23.00;66.20
15409;DHT22;7803;48.130;13.788;2023-02-26T07:47:06;23.00;66.20
15409;DHT22;7803;48.130;13.788;2023-02-26T07:50:09;23.00;66.10
15409;DHT22;7803;48.130;13.788;2023-02-26T07:53:13;23.00;66.20
15409;DHT22;7803;48.130;13.788;2023-02-26T07:56:16;23.00;66.10
15409;DHT22;7803;48.130;13.788;2023-02-26T07:59:18;23.00;66.10
15409;DHT22;7803;48.130;13.788;2023-02-26T08:02:20;23.00;66.10
15409;DHT22;7803;48.130;13.788;2023-02-26T08:05:24;23.00;66.10
15409;DHT22;7803;48.130;13.788;2023-02-26T08:08:27;23.00;66.10
15409;DHT22;7803;48.130;13.788;2023-02-26T08:11:29;23.00;66.10
15409;DHT22;7803;48.130;13.788;2023-02-26T08:14:32;23.00;66.10
15409;DHT22;7803;48.130;13.788;2023-02-26T08:17:35;23.00;66.10
15409;DHT22;7803;48.130;13.788;2023-02-26T08:20:37;23.00;66.10
15409;DHT22;7803;48.130;13.788;2023-02-26T08:23:40;23.00;66.20
15409;DHT22;7803;48.130;13.788;2023-02-26T08:26:42;23.00;66.10
15409;DHT22;7803;48.130;13.788;2023-02-26T08:29:45;23.00;66.10
15409;DHT22;7803;48.130;13.788;2023-02-26T08:32:49;23.00;66.10
15409;DHT22;7803;48.130;13.788;2023-02-26T08:35:52;23.00;66.10
15409;DHT22;7803;48.130;13.788;2023-02-26T08:38:56;23.10;66.20
15409;DHT22;7803;48.130;13.788;2023-02-26T08:41:59;23.00;66.10
15409;DHT22;7803;48.130;13.788;2023-02-26T08:45:01;23.10;66.10
15409;DHT22;7803;48.130;13.788;2023-02-26T08:48:03;23.10;66.10
15409;DHT22;7803;48.130;13.788;2023-02-26T08:51:05;23.10;66.10
15409;DHT22;7803;48.130;13.788;2023-02-26T08:54:09;23.10;66.10
15409;DHT22;7803;48.130;13.788;2023-02-26T08:57:11;23.10;66.10
15409;DHT22;7803;48.130;13.788;2023-02-26T09:00:14;23.10;66.10
15409;DHT22;7803;48.130;13.788;2023-02-26T09:03:18;23.10;66.10
15409;DHT22;7803;48.130;13.788;2023-02-26T09:06:20;23.10;66.10
15409;DHT22;7803;48.130;13.788;2023-02-26T09:09:23;23.10;66.10
15409;DHT22;7803;48.130;13.788;2023-02-26T09:12:25;23.10;66.10
15409;DHT22;7803;48.130;13.788;2023-02-26T09:15:28;23.10;66.10
15409;DHT22;7803;48.130;13.788;2023-02-26T09:18:30;23.10;66.10
15409;DHT22;7803;48.130;13.788;2023-02-26T09:21:32;23.10;66.10
15409;DHT22;7803;48.130;13.788;2023-02-26T09:24:36;23.10;66.10
15409;DHT22;7803;48.130;13.788;2023-02-26T09:27:38;23.10;67.00
15409;DHT22;7803;48.130;13.788;2023-02-26T09:30:40;23.10;66.10
15409;DHT22;7803;48.130;13.788;2023-02-26T09:33:43;23.10;66.00
15409;DHT22;7803;48.130;13.788;2023-02-26T09:36:45;23.10;66.10
15409;DHT22;7803;48.130;13.788;2023-02-26T09:39:48;23.10;66.00
15409;DHT22;7803;48.130;13.788;2023-02-26T09:43:14;23.10;66.00
15409;DHT22;7803;48.130;13.788;2023-02-26T09:46:31;23.10;65.90
15409;DHT22;7803;48.130;13.788;2023-02-26T09:49:44;23.10;66.00
15409;DHT22;7803;48.130;13.788;2023-02-26T09:52:52;23.10;66.00
15409;DHT22;7803;48.130;13.788;2023-02-26T09:56:02;23.10;66.00
15409;DHT22;7803;48.130;13.788;2023-02-26T09:59:06;23.10;66.00
15409;DHT22;7803;48.130;13.788;2023-02-26T10:02:16;23.10;65.90
15409;DHT22;7803;48.130;13.788;2023-02-26T10:05:26;23.20;66.10
15409;DHT22;7803;48.130;13.788;2023-02-26T10:08:36;23.10;66.00
15409;DHT22;7803;48.130;13.788;2023-02-26T10:11:46;23.10;65.90
15409;DHT22;7803;48.130;13.788;2023-02-26T10:14:53;23.20;66.00
15409;DHT22;7803;48.130;13.788;2023-02-26T10:18:04;23.20;66.00
15409;DHT22;7803;48.130;13.788;2023-02-26T10:21:10;23.20;66.00
15409;DHT22;7803;48.130;13.788;2023-02-26T10:24:18;23.20;66.00
15409;DHT22;7803;48.130;13.788;2023-02-26T10:27:37;23.20;66.00
15409;DHT22;7803;48.130;13.788;2023-02-26T10:30:45;23.20;66.00
15409;DHT22;7803;48.130;13.788;2023-02-26T10:33:56;23.20;66.00
15409;DHT22;7803;48.130;13.788;2023-02-26T10:37:04;23.20;66.00
15409;DHT22;7803;48.130;13.788;2023-02-26T10:40:13;23.20;66.90
15409;DHT22;7803;48.130;13.788;2023-02-26T10:43:20;23.20;66.00
15409;DHT22;7803;48.130;13.788;2023-02-26T10:46:27;23.20;66.10
15409;DHT22;7803;48.130;13.788;2023-02-26T10:49:48;23.20;66.00
15409;DHT22;7803;48.130;13.788;2023-02-26T10:52:53;23.20;66.00
15409;DHT22;7803;48.130;13.788;2023-02-26T10:56:01;23.20;66.00
15409;DHT22;7803;48.130;13.788;2023-02-26T10:59:06;23.20;66.00
15409;DHT22;7803;48.130;13.788;2023-02-26T11:02:25;23.20;65.90
15409;DHT22;7803;48.130;13.788;2023-02-26T11:05:32;23.20;65.90
15409;DHT22;7803;48.130;13.788;2023-02-26T11:08:39;23.30;66.00
15409;DHT22;7803;48.130;13.788;2023-02-26T11:11:50;23.20;65.90
15409;DHT22;7803;48.130;13.788;2023-02-26T11:14:54;23.20;65.90
15409;DHT22;7803;48.130;13.788;2023-02-26T11:17:57;23.30;66.00
15409;DHT22;7803;48.130;13.788;2023-02-26T11:21:00;23.30;66.00
15409;DHT22;7803;48.130;13.788;2023-02-26T11:24:08;23.30;65.90
15409;DHT22;7803;48.130;13.788;2023-02-26T11:27:14;23.30;65.90
15409;DHT22;7803;48.130;13.788;2023-02-26T11:30:20;23.20;65.90
15409;DHT22;7803;48.130;13.788;2023-02-26T11:33:27;23.20;65.90
15409;DHT22;7803;48.130;13.788;2023-02-26T11:36:31;23.30;66.00
15409;DHT22;7803;48.130;13.788;2023-02-26T11:39:35;23.30;66.00
15409;DHT22;7803;48.130;13.788;2023-02-26T11:42:43;23.30;66.00
15409;DHT22;7803;48.130;13.788;2023-02-26T11:45:58;23.30;66.10
15409;DHT22;7803;48.130;13.788;2023-02-26T11:49:01;23.30;66.00
15409;DHT22;7803;48.130;13.788;2023-02-26T11:52:16;23.30;66.10
15409;DHT22;7803;48.130;13.788;2023-02-26T11:55:28;23.30;66.00
15409;DHT22;7803;48.130;13.788;2023-02-26T11:58:35;23.30;66.00
15409;DHT22;7803;48.130;13.788;2023-02-26T12:01:41;23.30;66.00
15409;DHT22;7803;48.130;13.788;2023-02-26T12:04:47;23.30;66.00
15409;DHT22;7803;48.130;13.788;2023-02-26T12:07:50;23.30;66.00
15409;DHT22;7803;48.130;13.788;2023-02-26T12:11:01;23.30;66.00
15409;DHT22;7803;48.130;13.788;2023-02-26T12:14:19;23.30;66.00
15409;DHT22;7803;48.130;13.788;2023-02-26T12:17:36;23.30;66.00
15409;DHT22;7803;48.130;13.788;2023-02-26T12:20:46;23.30;66.00
15409;DHT22;7803;48.130;13.788;2023-02-26T12:24:22;23.30;66.10
15409;DHT22;7803;48.130;13.788;2023-02-26T12:27:37;23.30;67.00
15409;DHT22;7803;48.130;13.788;2023-02-26T12:34:41;23.30;66.20
15409;DHT22;7803;48.130;13.788;2023-02-26T12:37:55;23.30;66.20
15409;DHT22;7803;48.130;13.788;2023-02-26T12:41:11;23.30;66.10
15409;DHT22;7803;48.130;13.788;2023-02-26T12:44:31;23.30;66.20
15409;DHT22;7803;48.130;13.788;2023-02-26T12:47:46;23.30;66.20
15409;DHT22;7803;48.130;13.788;2023-02-26T12:51:02;23.30;66.20
15409;DHT22;7803;48.130;13.788;2023-02-26T12:54:24;23.30;66.20
15409;DHT22;7803;48.130;13.788;2023-02-26T12:57:50;23.30;66.20
15409;DHT22;7803;48.130;13.788;2023-02-26T13:01:07;23.30;66.30
15409;DHT22;7803;48.130;13.788;2023-02-26T13:04:30;23.30;66.30
15409;DHT22;7803;48.130;13.788;2023-02-26T13:07:57;23.30;66.30
15409;DHT22;7803;48.130;13.788;2023-02-26T13:11:11;23.30;66.30
15409;DHT22;7803;48.130;13.788;2023-02-26T13:14:27;23.20;66.30
15409;DHT22;7803;48.130;13.788;2023-02-26T13:17:35;23.30;66.40
15409;DHT22;7803;48.130;13.788;2023-02-26T13:20:51;23.30;66.40
15409;DHT22;7803;48.130;13.788;2023-02-26T13:24:01;23.20;66.50
15409;DHT22;7803;48.130;13.788;2023-02-26T13:27:08;23.20;66.60
15409;DHT22;7803;48.130;13.788;2023-02-26T13:30:24;23.20;66.60
15409;DHT22;7803;48.130;13.788;2023-02-26T13:33:30;23.10;66.50
15409;DHT22;7803;48.130;13.788;2023-02-26T13:36:34;23.10;66.60
15409;DHT22;7803;48.130;13.788;2023-02-26T13:39:44;23.10;66.70
15409;DHT22;7803;48.130;13.788;2023-02-26T13:42:53;23.10;66.80
15409;DHT22;7803;48.130;13.788;2023-02-26T13:46:08;23.10;66.80
15409;DHT22;7803;48.130;13.788;2023-02-26T13:49:19;23.00;66.70
15409;DHT22;7803;48.130;13.788;2023-02-26T13:52:25;23.00;66.70
15409;DHT22;7803;48.130;13.788;2023-02-26T13:55:44;23.00;66.70
15409;DHT22;7803;48.130;13.788;2023-02-26T13:58:51;23.10;66.80
15409;DHT22;7803;48.130;13.788;2023-02-26T14:01:56;23.00;66.70
15409;DHT22;7803;48.130;13.788;2023-02-26T14:04:59;23.00;66.70
15409;DHT22;7803;48.130;13.788;2023-02-26T14:11:45;23.00;66.70
15409;DHT22;7803;48.130;13.788;2023-02-26T14:15:18;23.00;66.60
15409;DHT22;7803;48.130;13.788;2023-02-26T14:18:30;23.00;66.60
15409;DHT22;7803;48.130;13.788;2023-02-26T14:21:49;23.10;66.60
15409;DHT22;7803;48.130;13.788;2023-02-26T14:24:54;23.10;66.60
15409;DHT22;7803;48.130;13.788;2023-02-26T14:28:30;23.10;66.50
15409;DHT22;7803;48.130;13.788;2023-02-26T14:31:52;23.10;66.50
15409;DHT22;7803;48.130;13.788;2023-02-26T14:34:58;23.10;66.50
15409;DHT22;7803;48.130;13.788;2023-02-26T14:38:17;23.10;66.50
15409;DHT22;7803;48.130;13.788;2023-02-26T14:41:26;23.10;66.50
15409;DHT22;7803;48.130;13.788;2023-02-26T14:44:35;23.10;66.50
15409;DHT22;7803;48.130;13.788;2023-02-26T14:47:38;23.10;66.60
15409;DHT22;7803;48.130;13.788;2023-02-26T14:50:49;23.20;67.10
15409;DHT22;7803;48.130;13.788;2023-02-26T14:54:16;23.20;66.50
15409;DHT22;7803;48.130;13.788;2023-02-26T14:57:32;23.20;66.50
15409;DHT22;7803;48.130;13.788;2023-02-26T15:00:48;23.20;66.50
15409;DHT22;7803;48.130;13.788;2023-02-26T15:07:38;23.10;66.50
15409;DHT22;7803;48.130;13.788;2023-02-26T15:11:11;23.10;66.50
15409;DHT22;7803;48.130;13.788;2023-02-26T15:14:29;23.10;66.60
15409;DHT22;7803;48.130;13.788;2023-02-26T15:18:02;23.10;66.60
15409;DHT22;7803;48.130;13.788;2023-02-26T15:21:16;23.10;66.70
15409;DHT22;7803;48.130;13.788;2023-02-26T15:24:22;23.10;66.70
15409;DHT22;7803;48.130;13.788;2023-02-26T15:27:30;23.10;66.90
15409;DHT22;7803;48.130;13.788;2023-02-26T15:30:34;23.10;66.90
15409;DHT22;7803;48.130;13.788;2023-02-26T15:33:39;23.10;66.90
15409;DHT22;7803;48.130;13.788;2023-02-26T15:36:44;23.10;66.90
15409;DHT22;7803;48.130;13.788;2023-02-26T15:39:49;23.10;66.90
15409;DHT22;7803;48.130;13.788;2023-02-26T15:42:54;23.10;66.90
15409;DHT22;7803;48.130;13.788;2023-02-26T15:45:58;23.00;66.90
15409;DHT22;7803;48.130;13.788;2023-02-26T15:49:07;23.10;66.90
15409;DHT22;7803;48.130;13.788;2023-02-26T15:52:15;23.10;67.00
15409;DHT22;7803;48.130;13.788;2023-02-26T15:55:19;23.10;66.90
15409;DHT22;7803;48.130;13.788;2023-02-26T15:58:30;23.10;66.90
15409;DHT22;7803;48.130;13.788;2023-02-26T16:01:34;23.10;66.80
15409;DHT22;7803;48.130;13.788;2023-02-26T16:04:40;23.10;66.80
15409;DHT22;7803;48.130;13.788;2023-02-26T16:07:44;23.10;66.80
15409;DHT22;7803;48.130;13.788;2023-02-26T16:10:48;23.10;66.70
15409;DHT22;7803;48.130;13.788;2023-02-26T16:13:52;23.20;66.80
15409;DHT22;7803;48.130;13.788;2023-02-26T16:16:57;23.20;66.70
15409;DHT22;7803;48.130;13.788;2023-02-26T16:20:05;23.20;66.70
15409;DHT22;7803;48.130;13.788;2023-02-26T16:23:13;23.20;66.70
15409;DHT22;7803;48.130;13.788;2023-02-26T16:26:21;23.20;66.60
15409;DHT22;7803;48.130;13.788;2023-02-26T16:29:27;23.20;66.70
15409;DHT22;7803;48.130;13.788;2023-02-26T16:32:33;23.20;66.60
15409;DHT22;7803;48.130;13.788;2023-02-26T16:35:41;23.20;66.60
15409;DHT22;7803;48.130;13.788;2023-02-26T16:38:48;23.30;66.70
15409;DHT22;7803;48.130;13.788;2023-02-26T16:42:06;23.30;66.70
15409;DHT22;7803;48.130;13.788;2023-02-26T16:45:21;23.30;66.60
15409;DHT22;7803;48.130;13.788;2023-02-26T16:48:28;23.20;66.60
15409;DHT22;7803;48.130;13.788;2023-02-26T16:51:36;23.30;66.60
15409;DHT22;7803;48.130;13.788;2023-02-26T16:54:41;23.30;66.70
15409;DHT22;7803;48.130;13.788;2023-02-26T16:57:45;23.30;66.60
15409;DHT22;7803;48.130;13.788;2023-02-26T17:00:53;23.30;66.60
15409;DHT22;7803;48.130;13.788;2023-02-26T17:04:01;23.30;67.50
15409;DHT22;7803;48.130;13.788;2023-02-26T17:07:19;23.30;66.60
15409;DHT22;7803;48.130;13.788;2023-02-26T17:10:30;23.30;66.60
15409;DHT22;7803;48.130;13.788;2023-02-26T17:13:35;23.30;66.60
15409;DHT22;7803;48.130;13.788;2023-02-26T17:16:39;23.30;66.60
15409;DHT22;7803;48.130;13.788;2023-02-26T17:19:42;23.30;66.60
15409;DHT22;7803;48.130;13.788;2023-02-26T17:22:47;23.30;66.70
15409;DHT22;7803;48.130;13.788;2023-02-26T17:25:52;23.30;66.80
15409;DHT22;7803;48.130;13.788;2023-02-26T17:28:56;23.30;66.80
15409;DHT22;7803;48.130;13.788;2023-02-26T17:32:00;23.30;66.90
15409;DHT22;7803;48.130;13.788;2023-02-26T17:35:03;23.30;66.90
15409;DHT22;7803;48.130;13.788;2023-02-26T17:38:11;23.30;66.90
15409;DHT22;7803;48.130;13.788;2023-02-26T17:41:16;23.30;66.90
15409;DHT22;7803;48.130;13.788;2023-02-26T17:44:21;23.30;67.00
15409;DHT22;7803;48.130;13.788;2023-02-26T17:47:24;23.30;67.00
15409;DHT22;7803;48.130;13.788;2023-02-26T17:50:35;23.40;67.10
15409;DHT22;7803;48.130;13.788;2023-02-26T17:53:41;23.30;66.90
15409;DHT22;7803;48.130;13.788;2023-02-26T17:56:46;23.30;66.90
15409;DHT22;7803;48.130;13.788;2023-02-26T17:59:49;23.30;67.00
15409;DHT22;7803;48.130;13.788;2023-02-26T18:02:53;23.30;67.00
15409;DHT22;7803;48.130;13.788;2023-02-26T18:05:56;23.30;67.10
15409;DHT22;7803;48.130;13.788;2023-02-26T18:09:05;23.30;67.10
15409;DHT22;7803;48.130;13.788;2023-02-26T18:12:11;23.30;67.10
15409;DHT22;7803;48.130;13.788;2023-02-26T18:15:15;23.30;67.10
15409;DHT22;7803;48.130;13.788;2023-02-26T18:18:19;23.20;67.10
15409;DHT22;7803;48.130;13.788;2023-02-26T18:21:26;23.20;67.20
15409;DHT22;7803;48.130;13.788;2023-02-26T18:24:31;23.20;67.20
15409;DHT22;7803;48.130;13.788;2023-02-26T18:27:35;23.10;67.20
15409;DHT22;7803;48.130;13.788;2023-02-26T18:30:38;23.10;67.40
15409;DHT22;7803;48.130;13.788;2023-02-26T18:33:47;23.10;67.30
15409;DHT22;7803;48.130;13.788;2023-02-26T18:36:51;23.10;67.40
15409;DHT22;7803;48.130;13.788;2023-02-26T18:39:56;23.10;67.40
15409;DHT22;7803;48.130;13.788;2023-02-26T18:43:00;23.10;67.40
15409;DHT22;7803;48.130;13.788;2023-02-26T18:46:04;23.10;67.40
15409;DHT22;7803;48.130;13.788;2023-02-26T18:49:16;23.00;67.40
15409;DHT22;7803;48.130;13.788;2023-02-26T18:52:20;23.00;67.40
15409;DHT22;7803;48.130;13.788;2023-02-26T18:55:24;23.00;67.40
15409;DHT22;7803;48.130;13.788;2023-02-26T18:58:28;23.00;67.40
15409;DHT22;7803;48.130;13.788;2023-02-26T19:01:31;23.00;67.60
15409;DHT22;7803;48.130;13.788;2023-02-26T19:04:34;23.00;67.60
15409;DHT22;7803;48.130;13.788;2023-02-26T19:07:41;23.00;67.60
15409;DHT22;7803;48.130;13.788;2023-02-26T19:10:46;23.00;67.50
15409;DHT22;7803;48.130;13.788;2023-02-26T19:13:50;23.00;67.50
15409;DHT22;7803;48.130;13.788;2023-02-26T19:16:54;23.00;67.40
15409;DHT22;7803;48.130;13.788;2023-02-26T19:19:57;23.00;67.40
15409;DHT22;7803;48.130;13.788;2023-02-26T19:23:00;23.00;67.40
15409;DHT22;7803;48.130;13.788;2023-02-26T19:26:07;23.00;67.30
15409;DHT22;7803;48.130;13.788;2023-02-26T19:29:14;23.00;67.40
15409;DHT22;7803;48.130;13.788;2023-02-26T19:32:18;23.00;67.30
15409;DHT22;7803;48.130;13.788;2023-02-26T19:35:21;23.00;67.20
15409;DHT22;7803;48.130;13.788;2023-02-26T19:38:27;23.10;67.20
15409;DHT22;7803;48.130;13.788;2023-02-26T19:41:32;23.10;67.10
15409;DHT22;7803;48.130;13.788;2023-02-26T19:44:35;23.10;67.00
15409;DHT22;7803;48.130;13.788;2023-02-26T19:47:39;23.10;67.10
15409;DHT22;7803;48.130;13.788;2023-02-26T19:50:42;23.10;67.00
15409;DHT22;7803;48.130;13.788;2023-02-26T19:53:51;23.10;66.90